Pisces — WTDL — position and weather

sailwx.info

Track history (hours):
 
Tides and Currents Weather Stations Pressure Air Temp Water Temp Dewpoint Dewpoint Depression Visibility Wind Speed Wind Dir Waves Ship Positions

Oceanographic research ship Pisces (USA)

Last reported at 2014-Jul-09 21:12 UTC. Time now 2014-Jul-23 01:43 UTC.
Position N 33°58' W 077°17'.
Warning: this ship's position is 13 days out of date.

Type: Other ship. MMSI: 369970145.

Date/timePositionNaut miles runAvg speedWind from/ knotsBaromVisibWave heightAir tempDewpointWater temp
2014-Jul-09 21:12N 33°58' W 077°17'1 0.7
2014-Jul-09 20:13N 33°58' W 077°17'0 0.6
2014-Jul-09 19:33N 33°58' W 077°16'12 5.2
2014-Jul-09 17:20N 34°10' W 077°18'1 0.4
2014-Jul-09 15:14N 34°10' W 077°17'1 1.4
2014-Jul-09 14:12N 34°10' W 077°18'1 1.0
2014-Jul-09 13:28N 34°11' W 077°19'1 0.6
2014-Jul-09 12:33N 34°12' W 077°18'2 0.5
2014-Jul-09 08:08N 34°10' W 077°17'1 0.1
2014-Jul-09 00:30N 34°10' W 077°18'37 7.4
2014-Jul-08 19:26N 33°48' W 076°42'1 0.8
2014-Jul-08 18:28N 33°48' W 076°41'  
2014-Jul-03 02:18N 26°34' W 079°38'1114.5
2014-Jul-03 01:33N 26°23' W 079°41'1514.9
2014-Jul-03 00:33N 26°09' W 079°44'1515.0
2014-Jul-02 23:33N 25°54' W 079°48'1515.0
2014-Jul-02 22:33N 25°40' W 079°52'  
Track history (hours):
 
Tides and Currents Weather Stations Pressure Air Temp Water Temp Dewpoint Dewpoint Depression Visibility Wind Speed Wind Dir Waves Ship Positions

Oceanographic research ship Pisces (USA)

Last reported at 2014-Jul-09 21:12 UTC. Time now 2014-Jul-23 01:43 UTC.
Position N 33°58' W 077°17'.
Warning: this ship's position is 13 days out of date.

Type: Other ship. MMSI: 369970145.

Date/timePositionNaut miles runAvg speedWind from/ knotsBaromVisibWave heightAir tempDewpointWater temp
2014-Jul-09 21:12N 33°58' W 077°17'1 0.7
2014-Jul-09 20:13N 33°58' W 077°17'0 0.6
2014-Jul-09 19:33N 33°58' W 077°16'12 5.2
2014-Jul-09 17:20N 34°10' W 077°18'1 0.4
2014-Jul-09 15:14N 34°10' W 077°17'1 1.4
2014-Jul-09 14:12N 34°10' W 077°18'1 1.0
2014-Jul-09 13:28N 34°11' W 077°19'1 0.6
2014-Jul-09 12:33N 34°12' W 077°18'2 0.5
2014-Jul-09 08:08N 34°10' W 077°17'1 0.1
2014-Jul-09 00:30N 34°10' W 077°18'37 7.4
2014-Jul-08 19:26N 33°48' W 076°42'1 0.8
2014-Jul-08 18:28N 33°48' W 076°41'  
2014-Jul-03 02:18N 26°34' W 079°38'1114.5
2014-Jul-03 01:33N 26°23' W 079°41'1514.9
2014-Jul-03 00:33N 26°09' W 079°44'1515.0
2014-Jul-02 23:33N 25°54' W 079°48'1515.0
2014-Jul-02 22:33N 25°40' W 079°52'  

Dump ship's entire track history